sensor_id;sensor_type;location;lat;lon;timestamp;P1;durP1;ratioP1;P2;durP2;ratioP2
60704;SDS011;46545;38.014;-7.874;2023-05-07T00:00:37;29.17;;;15.63;;
60704;SDS011;46545;38.014;-7.874;2023-05-07T00:02:37;41.55;;;17.75;;
60704;SDS011;46545;38.014;-7.874;2023-05-07T00:04:38;42.70;;;16.58;;
60704;SDS011;46545;38.014;-7.874;2023-05-07T00:06:39;32.00;;;15.65;;
60704;SDS011;46545;38.014;-7.874;2023-05-07T00:08:39;33.35;;;15.65;;
60704;SDS011;46545;38.014;-7.874;2023-05-07T00:10:40;31.63;;;15.13;;
60704;SDS011;46545;38.014;-7.874;2023-05-07T00:12:40;35.13;;;15.02;;
60704;SDS011;46545;38.014;-7.874;2023-05-07T00:14:41;31.52;;;15.18;;
60704;SDS011;46545;38.014;-7.874;2023-05-07T00:16:41;39.08;;;14.30;;
60704;SDS011;46545;38.014;-7.874;2023-05-07T00:18:42;34.30;;;15.90;;
60704;SDS011;46545;38.014;-7.874;2023-05-07T00:20:42;32.63;;;14.63;;
60704;SDS011;46545;38.014;-7.874;2023-05-07T00:22:43;42.65;;;15.63;;
60704;SDS011;46545;38.014;-7.874;2023-05-07T00:24:43;36.67;;;15.43;;
60704;SDS011;46545;38.014;-7.874;2023-05-07T00:26:44;36.47;;;17.13;;
60704;SDS011;46545;38.014;-7.874;2023-05-07T00:28:44;36.63;;;16.13;;
60704;SDS011;46545;38.014;-7.874;2023-05-07T00:30:44;39.97;;;16.85;;
60704;SDS011;46545;38.014;-7.874;2023-05-07T00:32:45;38.08;;;17.45;;
60704;SDS011;46545;38.014;-7.874;2023-05-07T00:34:46;40.55;;;18.15;;
60704;SDS011;46545;38.014;-7.874;2023-05-07T00:36:46;36.15;;;17.35;;
60704;SDS011;46545;38.014;-7.874;2023-05-07T00:38:47;38.80;;;17.30;;
60704;SDS011;46545;38.014;-7.874;2023-05-07T00:40:47;34.78;;;15.88;;
60704;SDS011;46545;38.014;-7.874;2023-05-07T00:42:48;42.47;;;16.13;;
60704;SDS011;46545;38.014;-7.874;2023-05-07T00:44:49;32.72;;;16.42;;
60704;SDS011;46545;38.014;-7.874;2023-05-07T00:46:49;34.85;;;16.95;;
60704;SDS011;46545;38.014;-7.874;2023-05-07T00:48:50;46.53;;;17.63;;
60704;SDS011;46545;38.014;-7.874;2023-05-07T00:50:51;45.90;;;19.35;;
60704;SDS011;46545;38.014;-7.874;2023-05-07T00:52:51;36.90;;;19.27;;
60704;SDS011;46545;38.014;-7.874;2023-05-07T00:54:52;41.17;;;20.08;;
60704;SDS011;46545;38.014;-7.874;2023-05-07T00:56:53;41.83;;;19.27;;
60704;SDS011;46545;38.014;-7.874;2023-05-07T00:58:54;41.10;;;20.73;;
60704;SDS011;46545;38.014;-7.874;2023-05-07T01:00:55;47.78;;;21.30;;
60704;SDS011;46545;38.014;-7.874;2023-05-07T01:02:55;36.15;;;20.15;;
60704;SDS011;46545;38.014;-7.874;2023-05-07T01:04:56;41.45;;;21.33;;
60704;SDS011;46545;38.014;-7.874;2023-05-07T01:06:56;43.60;;;22.65;;
60704;SDS011;46545;38.014;-7.874;2023-05-07T01:08:58;46.92;;;22.58;;
60704;SDS011;46545;38.014;-7.874;2023-05-07T01:10:59;47.17;;;22.05;;
60704;SDS011;46545;38.014;-7.874;2023-05-07T01:13:00;47.30;;;22.05;;
60704;SDS011;46545;38.014;-7.874;2023-05-07T01:15:01;48.80;;;24.67;;
60704;SDS011;46545;38.014;-7.874;2023-05-07T01:17:02;47.30;;;24.38;;
60704;SDS011;46545;38.014;-7.874;2023-05-07T01:19:03;46.45;;;22.75;;
60704;SDS011;46545;38.014;-7.874;2023-05-07T01:21:04;46.25;;;22.92;;
60704;SDS011;46545;38.014;-7.874;2023-05-07T01:23:05;47.75;;;24.10;;
60704;SDS011;46545;38.014;-7.874;2023-05-07T01:25:07;53.22;;;25.67;;
60704;SDS011;46545;38.014;-7.874;2023-05-07T01:27:09;51.30;;;23.35;;
60704;SDS011;46545;38.014;-7.874;2023-05-07T01:29:11;59.08;;;24.85;;
60704;SDS011;46545;38.014;-7.874;2023-05-07T01:31:12;53.13;;;24.15;;
60704;SDS011;46545;38.014;-7.874;2023-05-07T01:33:13;54.05;;;23.65;;
60704;SDS011;46545;38.014;-7.874;2023-05-07T01:35:19;55.90;;;25.65;;
60704;SDS011;46545;38.014;-7.874;2023-05-07T01:37:20;52.30;;;23.73;;
60704;SDS011;46545;38.014;-7.874;2023-05-07T01:39:22;49.63;;;25.10;;
60704;SDS011;46545;38.014;-7.874;2023-05-07T01:41:23;49.88;;;24.77;;
60704;SDS011;46545;38.014;-7.874;2023-05-07T01:43:24;58.30;;;25.48;;
60704;SDS011;46545;38.014;-7.874;2023-05-07T01:45:25;56.30;;;27.88;;
60704;SDS011;46545;38.014;-7.874;2023-05-07T01:47:25;58.67;;;28.10;;
60704;SDS011;46545;38.014;-7.874;2023-05-07T01:49:26;57.08;;;28.20;;
60704;SDS011;46545;38.014;-7.874;2023-05-07T01:51:27;55.63;;;27.08;;
60704;SDS011;46545;38.014;-7.874;2023-05-07T01:53:27;58.05;;;27.30;;
60704;SDS011;46545;38.014;-7.874;2023-05-07T01:55:28;52.95;;;25.50;;
60704;SDS011;46545;38.014;-7.874;2023-05-07T01:57:29;55.95;;;26.17;;
60704;SDS011;46545;38.014;-7.874;2023-05-07T01:59:29;56.97;;;25.60;;
60704;SDS011;46545;38.014;-7.874;2023-05-07T02:01:29;50.70;;;22.55;;
60704;SDS011;46545;38.014;-7.874;2023-05-07T02:03:30;47.08;;;22.52;;
60704;SDS011;46545;38.014;-7.874;2023-05-07T02:05:39;44.85;;;21.23;;
60704;SDS011;46545;38.014;-7.874;2023-05-07T02:07:46;45.10;;;22.13;;
60704;SDS011;46545;38.014;-7.874;2023-05-07T02:09:48;52.22;;;20.75;;
60704;SDS011;46545;38.014;-7.874;2023-05-07T02:11:48;44.10;;;19.63;;
60704;SDS011;46545;38.014;-7.874;2023-05-07T02:13:49;38.65;;;20.60;;
60704;SDS011;46545;38.014;-7.874;2023-05-07T02:15:49;43.28;;;18.95;;
60704;SDS011;46545;38.014;-7.874;2023-05-07T02:18:04;43.47;;;18.73;;
60704;SDS011;46545;38.014;-7.874;2023-05-07T02:20:05;42.05;;;17.55;;
60704;SDS011;46545;38.014;-7.874;2023-05-07T02:22:07;38.65;;;18.52;;
60704;SDS011;46545;38.014;-7.874;2023-05-07T02:24:08;41.13;;;17.48;;
60704;SDS011;46545;38.014;-7.874;2023-05-07T02:26:08;40.58;;;17.00;;
60704;SDS011;46545;38.014;-7.874;2023-05-07T02:28:09;34.55;;;17.63;;
60704;SDS011;46545;38.014;-7.874;2023-05-07T02:30:17;41.33;;;14.57;;
60704;SDS011;46545;38.014;-7.874;2023-05-07T02:32:18;34.63;;;15.68;;
60704;SDS011;46545;38.014;-7.874;2023-05-07T02:34:19;38.53;;;15.05;;
60704;SDS011;46545;38.014;-7.874;2023-05-07T02:36:19;41.38;;;15.80;;
60704;SDS011;46545;38.014;-7.874;2023-05-07T02:38:31;42.28;;;13.98;;
60704;SDS011;46545;38.014;-7.874;2023-05-07T02:40:32;26.25;;;13.30;;
60704;SDS011;46545;38.014;-7.874;2023-05-07T02:42:33;30.23;;;12.60;;
60704;SDS011;46545;38.014;-7.874;2023-05-07T02:44:34;28.02;;;12.27;;
60704;SDS011;46545;38.014;-7.874;2023-05-07T02:46:36;32.35;;;12.82;;
60704;SDS011;46545;38.014;-7.874;2023-05-07T02:48:41;41.28;;;13.50;;
60704;SDS011;46545;38.014;-7.874;2023-05-07T02:50:42;25.58;;;11.55;;
60704;SDS011;46545;38.014;-7.874;2023-05-07T02:52:43;31.75;;;12.38;;
60704;SDS011;46545;38.014;-7.874;2023-05-07T02:54:43;32.28;;;12.85;;
60704;SDS011;46545;38.014;-7.874;2023-05-07T02:56:44;32.88;;;12.52;;
60704;SDS011;46545;38.014;-7.874;2023-05-07T02:58:45;32.72;;;12.05;;
60704;SDS011;46545;38.014;-7.874;2023-05-07T03:00:46;34.33;;;12.65;;
60704;SDS011;46545;38.014;-7.874;2023-05-07T03:03:04;25.83;;;10.88;;
60704;SDS011;46545;38.014;-7.874;2023-05-07T03:05:05;29.10;;;11.52;;
60704;SDS011;46545;38.014;-7.874;2023-05-07T03:07:05;31.00;;;10.88;;
60704;SDS011;46545;38.014;-7.874;2023-05-07T03:09:06;30.58;;;11.57;;
60704;SDS011;46545;38.014;-7.874;2023-05-07T03:11:07;25.83;;;10.75;;
60704;SDS011;46545;38.014;-7.874;2023-05-07T03:13:07;28.75;;;11.95;;
60704;SDS011;46545;38.014;-7.874;2023-05-07T03:15:08;39.22;;;11.90;;
60704;SDS011;46545;38.014;-7.874;2023-05-07T03:17:09;26.58;;;10.77;;
60704;SDS011;46545;38.014;-7.874;2023-05-07T03:19:09;26.33;;;10.95;;
60704;SDS011;46545;38.014;-7.874;2023-05-07T03:21:09;36.00;;;11.90;;
60704;SDS011;46545;38.014;-7.874;2023-05-07T03:23:10;29.63;;;14.30;;
60704;SDS011;46545;38.014;-7.874;2023-05-07T03:25:10;30.13;;;13.05;;
60704;SDS011;46545;38.014;-7.874;2023-05-07T03:27:11;34.97;;;11.88;;
60704;SDS011;46545;38.014;-7.874;2023-05-07T03:29:11;35.42;;;13.40;;
60704;SDS011;46545;38.014;-7.874;2023-05-07T03:31:12;34.42;;;13.02;;
60704;SDS011;46545;38.014;-7.874;2023-05-07T03:33:12;29.98;;;15.88;;
60704;SDS011;46545;38.014;-7.874;2023-05-07T03:35:13;30.63;;;12.80;;
60704;SDS011;46545;38.014;-7.874;2023-05-07T03:37:14;36.17;;;14.63;;
60704;SDS011;46545;38.014;-7.874;2023-05-07T03:39:16;33.30;;;14.30;;
60704;SDS011;46545;38.014;-7.874;2023-05-07T03:41:17;33.53;;;13.65;;
60704;SDS011;46545;38.014;-7.874;2023-05-07T03:43:19;34.85;;;14.20;;
60704;SDS011;46545;38.014;-7.874;2023-05-07T03:45:24;31.10;;;13.60;;
60704;SDS011;46545;38.014;-7.874;2023-05-07T03:47:33;29.88;;;13.40;;
60704;SDS011;46545;38.014;-7.874;2023-05-07T03:49:34;37.08;;;12.02;;
60704;SDS011;46545;38.014;-7.874;2023-05-07T03:51:35;32.50;;;13.27;;
60704;SDS011;46545;38.014;-7.874;2023-05-07T03:53:37;41.55;;;12.02;;
60704;SDS011;46545;38.014;-7.874;2023-05-07T03:55:38;35.00;;;13.00;;
60704;SDS011;46545;38.014;-7.874;2023-05-07T03:57:38;34.47;;;12.60;;
60704;SDS011;46545;38.014;-7.874;2023-05-07T03:59:39;26.13;;;11.43;;
60704;SDS011;46545;38.014;-7.874;2023-05-07T04:01:41;31.20;;;12.27;;
60704;SDS011;46545;38.014;-7.874;2023-05-07T04:03:42;32.83;;;12.38;;
60704;SDS011;46545;38.014;-7.874;2023-05-07T04:05:42;27.55;;;12.23;;
60704;SDS011;46545;38.014;-7.874;2023-05-07T04:07:43;46.55;;;12.75;;
60704;SDS011;46545;38.014;-7.874;2023-05-07T04:09:46;24.25;;;12.25;;
60704;SDS011;46545;38.014;-7.874;2023-05-07T04:11:47;26.92;;;11.98;;
60704;SDS011;46545;38.014;-7.874;2023-05-07T04:13:48;34.05;;;13.02;;
60704;SDS011;46545;38.014;-7.874;2023-05-07T04:15:54;31.65;;;13.63;;
60704;SDS011;46545;38.014;-7.874;2023-05-07T04:17:55;32.88;;;11.55;;
60704;SDS011;46545;38.014;-7.874;2023-05-07T04:19:57;52.08;;;12.20;;
60704;SDS011;46545;38.014;-7.874;2023-05-07T04:21:58;72.57;;;12.52;;
60704;SDS011;46545;38.014;-7.874;2023-05-07T04:23:59;29.65;;;11.82;;
60704;SDS011;46545;38.014;-7.874;2023-05-07T04:26:00;39.83;;;11.48;;
60704;SDS011;46545;38.014;-7.874;2023-05-07T04:28:09;33.08;;;12.10;;
60704;SDS011;46545;38.014;-7.874;2023-05-07T04:30:11;41.35;;;11.65;;
60704;SDS011;46545;38.014;-7.874;2023-05-07T04:32:13;26.92;;;10.95;;
60704;SDS011;46545;38.014;-7.874;2023-05-07T04:34:14;18.25;;;9.98;;
60704;SDS011;46545;38.014;-7.874;2023-05-07T04:36:15;24.10;;;11.18;;
60704;SDS011;46545;38.014;-7.874;2023-05-07T04:38:24;34.50;;;9.85;;
60704;SDS011;46545;38.014;-7.874;2023-05-07T04:40:27;28.08;;;10.10;;
60704;SDS011;46545;38.014;-7.874;2023-05-07T04:42:28;25.20;;;10.05;;
60704;SDS011;46545;38.014;-7.874;2023-05-07T04:44:29;30.02;;;9.60;;
60704;SDS011;46545;38.014;-7.874;2023-05-07T04:46:31;24.73;;;10.23;;
60704;SDS011;46545;38.014;-7.874;2023-05-07T04:48:32;94.20;;;9.80;;
60704;SDS011;46545;38.014;-7.874;2023-05-07T04:50:34;21.35;;;9.55;;
60704;SDS011;46545;38.014;-7.874;2023-05-07T04:52:36;23.17;;;11.00;;
60704;SDS011;46545;38.014;-7.874;2023-05-07T04:54:38;18.48;;;8.85;;
60704;SDS011;46545;38.014;-7.874;2023-05-07T04:56:39;24.83;;;9.63;;
60704;SDS011;46545;38.014;-7.874;2023-05-07T04:58:40;38.85;;;8.27;;
60704;SDS011;46545;38.014;-7.874;2023-05-07T05:00:41;26.98;;;9.38;;
60704;SDS011;46545;38.014;-7.874;2023-05-07T05:02:42;37.78;;;8.80;;
60704;SDS011;46545;38.014;-7.874;2023-05-07T05:04:44;21.42;;;8.55;;
60704;SDS011;46545;38.014;-7.874;2023-05-07T05:06:44;19.95;;;8.70;;
60704;SDS011;46545;38.014;-7.874;2023-05-07T05:08:47;38.97;;;9.00;;
60704;SDS011;46545;38.014;-7.874;2023-05-07T05:10:47;62.58;;;13.43;;
60704;SDS011;46545;38.014;-7.874;2023-05-07T05:12:50;42.47;;;9.75;;
60704;SDS011;46545;38.014;-7.874;2023-05-07T05:14:50;35.47;;;10.88;;
60704;SDS011;46545;38.014;-7.874;2023-05-07T05:16:51;26.15;;;10.15;;
60704;SDS011;46545;38.014;-7.874;2023-05-07T05:18:52;23.25;;;9.57;;
60704;SDS011;46545;38.014;-7.874;2023-05-07T05:20:54;58.93;;;13.73;;
60704;SDS011;46545;38.014;-7.874;2023-05-07T05:22:55;41.88;;;9.52;;
60704;SDS011;46545;38.014;-7.874;2023-05-07T05:24:56;23.35;;;10.25;;
60704;SDS011;46545;38.014;-7.874;2023-05-07T05:26:56;40.80;;;11.40;;
60704;SDS011;46545;38.014;-7.874;2023-05-07T05:28:58;20.58;;;11.43;;
60704;SDS011;46545;38.014;-7.874;2023-05-07T05:31:01;45.67;;;12.25;;
60704;SDS011;46545;38.014;-7.874;2023-05-07T05:33:05;21.42;;;10.85;;
60704;SDS011;46545;38.014;-7.874;2023-05-07T05:35:06;36.53;;;11.88;;
60704;SDS011;46545;38.014;-7.874;2023-05-07T05:37:06;55.67;;;12.52;;
60704;SDS011;46545;38.014;-7.874;2023-05-07T05:39:07;31.67;;;11.27;;
60704;SDS011;46545;38.014;-7.874;2023-05-07T05:41:08;21.63;;;11.50;;
60704;SDS011;46545;38.014;-7.874;2023-05-07T05:43:09;40.55;;;12.90;;
60704;SDS011;46545;38.014;-7.874;2023-05-07T05:45:11;30.08;;;12.25;;
60704;SDS011;46545;38.014;-7.874;2023-05-07T05:47:13;32.45;;;10.77;;
60704;SDS011;46545;38.014;-7.874;2023-05-07T05:49:14;35.58;;;12.80;;
60704;SDS011;46545;38.014;-7.874;2023-05-07T05:51:14;34.88;;;12.18;;
60704;SDS011;46545;38.014;-7.874;2023-05-07T05:53:15;32.53;;;12.23;;
60704;SDS011;46545;38.014;-7.874;2023-05-07T05:55:16;27.83;;;12.07;;
60704;SDS011;46545;38.014;-7.874;2023-05-07T05:57:16;29.50;;;11.77;;
60704;SDS011;46545;38.014;-7.874;2023-05-07T05:59:18;25.08;;;11.75;;
60704;SDS011;46545;38.014;-7.874;2023-05-07T06:01:19;34.55;;;12.75;;
60704;SDS011;46545;38.014;-7.874;2023-05-07T06:03:20;32.20;;;11.75;;
60704;SDS011;46545;38.014;-7.874;2023-05-07T06:05:21;27.08;;;13.80;;
60704;SDS011;46545;38.014;-7.874;2023-05-07T06:07:25;27.70;;;12.55;;
60704;SDS011;46545;38.014;-7.874;2023-05-07T06:09:26;26.08;;;14.40;;
60704;SDS011;46545;38.014;-7.874;2023-05-07T06:11:26;29.40;;;13.63;;
60704;SDS011;46545;38.014;-7.874;2023-05-07T06:13:27;28.38;;;13.95;;
60704;SDS011;46545;38.014;-7.874;2023-05-07T06:15:27;23.23;;;12.05;;
60704;SDS011;46545;38.014;-7.874;2023-05-07T06:17:28;34.15;;;13.32;;
60704;SDS011;46545;38.014;-7.874;2023-05-07T06:19:29;24.33;;;12.90;;
60704;SDS011;46545;38.014;-7.874;2023-05-07T06:21:31;31.05;;;15.18;;
60704;SDS011;46545;38.014;-7.874;2023-05-07T06:23:32;27.73;;;15.82;;
60704;SDS011;46545;38.014;-7.874;2023-05-07T06:25:33;31.17;;;16.77;;
60704;SDS011;46545;38.014;-7.874;2023-05-07T06:27:34;36.05;;;16.70;;
60704;SDS011;46545;38.014;-7.874;2023-05-07T06:29:35;30.05;;;16.63;;
60704;SDS011;46545;38.014;-7.874;2023-05-07T06:31:41;31.75;;;17.52;;
60704;SDS011;46545;38.014;-7.874;2023-05-07T06:33:44;32.50;;;17.85;;
60704;SDS011;46545;38.014;-7.874;2023-05-07T06:35:45;25.95;;;15.38;;
60704;SDS011;46545;38.014;-7.874;2023-05-07T06:37:45;28.10;;;14.18;;
60704;SDS011;46545;38.014;-7.874;2023-05-07T06:39:53;19.23;;;10.35;;
60704;SDS011;46545;38.014;-7.874;2023-05-07T06:41:54;24.48;;;10.82;;
60704;SDS011;46545;38.014;-7.874;2023-05-07T06:44:06;21.08;;;11.40;;
60704;SDS011;46545;38.014;-7.874;2023-05-07T06:46:13;18.23;;;10.25;;
60704;SDS011;46545;38.014;-7.874;2023-05-07T06:48:13;16.67;;;9.55;;
60704;SDS011;46545;38.014;-7.874;2023-05-07T06:50:23;18.92;;;9.30;;
60704;SDS011;46545;38.014;-7.874;2023-05-07T06:52:26;17.75;;;8.75;;
60704;SDS011;46545;38.014;-7.874;2023-05-07T06:54:28;21.83;;;10.10;;
60704;SDS011;46545;38.014;-7.874;2023-05-07T06:56:29;21.42;;;9.43;;
60704;SDS011;46545;38.014;-7.874;2023-05-07T06:58:29;24.23;;;9.55;;
60704;SDS011;46545;38.014;-7.874;2023-05-07T07:00:30;15.35;;;8.68;;
60704;SDS011;46545;38.014;-7.874;2023-05-07T07:02:31;17.98;;;8.77;;
60704;SDS011;46545;38.014;-7.874;2023-05-07T07:04:31;21.58;;;9.82;;
60704;SDS011;46545;38.014;-7.874;2023-05-07T07:06:37;19.83;;;10.63;;
60704;SDS011;46545;38.014;-7.874;2023-05-07T07:08:42;18.77;;;10.65;;
60704;SDS011;46545;38.014;-7.874;2023-05-07T07:10:46;20.75;;;9.05;;
60704;SDS011;46545;38.014;-7.874;2023-05-07T07:12:46;19.90;;;9.18;;
60704;SDS011;46545;38.014;-7.874;2023-05-07T07:14:47;19.70;;;9.35;;
60704;SDS011;46545;38.014;-7.874;2023-05-07T07:16:48;23.30;;;9.10;;
60704;SDS011;46545;38.014;-7.874;2023-05-07T07:18:51;20.23;;;7.60;;
60704;SDS011;46545;38.014;-7.874;2023-05-07T07:20:52;21.92;;;8.98;;
60704;SDS011;46545;38.014;-7.874;2023-05-07T07:22:52;19.75;;;7.88;;
60704;SDS011;46545;38.014;-7.874;2023-05-07T07:24:53;14.02;;;6.47;;
60704;SDS011;46545;38.014;-7.874;2023-05-07T07:26:54;14.38;;;5.18;;
60704;SDS011;46545;38.014;-7.874;2023-05-07T07:28:56;14.88;;;4.40;;
60704;SDS011;46545;38.014;-7.874;2023-05-07T07:30:58;14.25;;;4.80;;
60704;SDS011;46545;38.014;-7.874;2023-05-07T07:32:59;16.50;;;4.78;;
60704;SDS011;46545;38.014;-7.874;2023-05-07T07:35:06;14.18;;;4.35;;
60704;SDS011;46545;38.014;-7.874;2023-05-07T07:37:07;11.07;;;3.80;;
60704;SDS011;46545;38.014;-7.874;2023-05-07T07:39:08;12.95;;;4.60;;
60704;SDS011;46545;38.014;-7.874;2023-05-07T07:41:10;8.57;;;4.35;;
60704;SDS011;46545;38.014;-7.874;2023-05-07T07:43:11;13.63;;;4.78;;
60704;SDS011;46545;38.014;-7.874;2023-05-07T07:45:11;13.35;;;4.70;;
60704;SDS011;46545;38.014;-7.874;2023-05-07T07:47:16;10.73;;;3.55;;
60704;SDS011;46545;38.014;-7.874;2023-05-07T07:49:18;11.43;;;4.15;;
60704;SDS011;46545;38.014;-7.874;2023-05-07T07:51:18;18.15;;;3.72;;
60704;SDS011;46545;38.014;-7.874;2023-05-07T07:53:19;11.27;;;3.78;;
60704;SDS011;46545;38.014;-7.874;2023-05-07T07:55:20;10.52;;;3.60;;
60704;SDS011;46545;38.014;-7.874;2023-05-07T07:57:24;13.15;;;3.28;;
60704;SDS011;46545;38.014;-7.874;2023-05-07T07:59:25;15.10;;;3.28;;
60704;SDS011;46545;38.014;-7.874;2023-05-07T08:01:25;10.15;;;3.13;;
60704;SDS011;46545;38.014;-7.874;2023-05-07T08:03:27;8.48;;;3.55;;
60704;SDS011;46545;38.014;-7.874;2023-05-07T08:05:32;6.10;;;2.67;;
60704;SDS011;46545;38.014;-7.874;2023-05-07T08:07:33;11.10;;;2.95;;
60704;SDS011;46545;38.014;-7.874;2023-05-07T08:09:34;21.25;;;5.45;;
60704;SDS011;46545;38.014;-7.874;2023-05-07T08:11:36;14.98;;;4.88;;
60704;SDS011;46545;38.014;-7.874;2023-05-07T08:13:37;11.70;;;3.17;;
60704;SDS011;46545;38.014;-7.874;2023-05-07T08:15:38;13.57;;;3.85;;
60704;SDS011;46545;38.014;-7.874;2023-05-07T08:17:39;11.20;;;3.60;;
60704;SDS011;46545;38.014;-7.874;2023-05-07T08:19:40;14.00;;;3.55;;
60704;SDS011;46545;38.014;-7.874;2023-05-07T08:21:44;6.32;;;2.85;;
60704;SDS011;46545;38.014;-7.874;2023-05-07T08:23:46;10.27;;;3.63;;
60704;SDS011;46545;38.014;-7.874;2023-05-07T08:25:46;13.52;;;4.55;;
60704;SDS011;46545;38.014;-7.874;2023-05-07T08:27:47;5.47;;;2.35;;
60704;SDS011;46545;38.014;-7.874;2023-05-07T08:29:48;8.63;;;2.72;;
60704;SDS011;46545;38.014;-7.874;2023-05-07T08:31:51;10.05;;;3.00;;
60704;SDS011;46545;38.014;-7.874;2023-05-07T08:33:51;5.18;;;2.55;;
60704;SDS011;46545;38.014;-7.874;2023-05-07T08:35:52;8.55;;;2.67;;
60704;SDS011;46545;38.014;-7.874;2023-05-07T08:37:53;9.27;;;3.42;;
60704;SDS011;46545;38.014;-7.874;2023-05-07T08:39:54;8.10;;;3.25;;
60704;SDS011;46545;38.014;-7.874;2023-05-07T08:42:00;7.45;;;3.22;;
60704;SDS011;46545;38.014;-7.874;2023-05-07T08:44:03;10.13;;;3.05;;
60704;SDS011;46545;38.014;-7.874;2023-05-07T08:46:06;8.93;;;3.33;;
60704;SDS011;46545;38.014;-7.874;2023-05-07T08:48:14;11.10;;;3.00;;
60704;SDS011;46545;38.014;-7.874;2023-05-07T08:50:17;9.25;;;2.83;;
60704;SDS011;46545;38.014;-7.874;2023-05-07T08:52:18;10.02;;;3.85;;
60704;SDS011;46545;38.014;-7.874;2023-05-07T08:54:20;9.85;;;3.20;;
60704;SDS011;46545;38.014;-7.874;2023-05-07T08:56:22;12.90;;;3.38;;
60704;SDS011;46545;38.014;-7.874;2023-05-07T08:58:23;8.13;;;2.80;;
60704;SDS011;46545;38.014;-7.874;2023-05-07T09:00:24;9.13;;;4.00;;
60704;SDS011;46545;38.014;-7.874;2023-05-07T09:02:27;10.65;;;2.63;;
60704;SDS011;46545;38.014;-7.874;2023-05-07T09:04:29;12.65;;;3.45;;
60704;SDS011;46545;38.014;-7.874;2023-05-07T09:06:32;21.10;;;3.88;;
60704;SDS011;46545;38.014;-7.874;2023-05-07T09:08:33;8.80;;;3.08;;
60704;SDS011;46545;38.014;-7.874;2023-05-07T09:10:36;8.73;;;3.38;;
60704;SDS011;46545;38.014;-7.874;2023-05-07T09:12:38;4.57;;;2.30;;
60704;SDS011;46545;38.014;-7.874;2023-05-07T09:14:41;5.22;;;2.20;;
60704;SDS011;46545;38.014;-7.874;2023-05-07T09:16:41;6.30;;;2.60;;
60704;SDS011;46545;38.014;-7.874;2023-05-07T09:18:43;9.20;;;3.08;;
60704;SDS011;46545;38.014;-7.874;2023-05-07T09:20:45;7.30;;;2.70;;
60704;SDS011;46545;38.014;-7.874;2023-05-07T09:22:45;10.18;;;3.08;;
60704;SDS011;46545;38.014;-7.874;2023-05-07T09:24:49;7.50;;;3.22;;
60704;SDS011;46545;38.014;-7.874;2023-05-07T09:26:51;10.75;;;3.20;;
60704;SDS011;46545;38.014;-7.874;2023-05-07T09:28:52;8.60;;;3.88;;
60704;SDS011;46545;38.014;-7.874;2023-05-07T09:30:53;4.70;;;3.20;;
60704;SDS011;46545;38.014;-7.874;2023-05-07T09:32:56;7.45;;;3.42;;
60704;SDS011;46545;38.014;-7.874;2023-05-07T09:34:56;8.93;;;4.25;;
60704;SDS011;46545;38.014;-7.874;2023-05-07T09:36:59;9.07;;;3.60;;
60704;SDS011;46545;38.014;-7.874;2023-05-07T09:39:00;8.70;;;3.78;;
60704;SDS011;46545;38.014;-7.874;2023-05-07T09:41:05;10.38;;;5.07;;
60704;SDS011;46545;38.014;-7.874;2023-05-07T09:43:12;12.00;;;4.57;;
60704;SDS011;46545;38.014;-7.874;2023-05-07T09:45:24;10.40;;;4.80;;
60704;SDS011;46545;38.014;-7.874;2023-05-07T09:47:25;10.52;;;4.63;;
60704;SDS011;46545;38.014;-7.874;2023-05-07T09:49:30;14.70;;;4.18;;
60704;SDS011;46545;38.014;-7.874;2023-05-07T09:51:39;8.80;;;4.43;;
60704;SDS011;46545;38.014;-7.874;2023-05-07T09:53:41;10.05;;;4.32;;
60704;SDS011;46545;38.014;-7.874;2023-05-07T09:55:43;13.40;;;4.97;;
60704;SDS011;46545;38.014;-7.874;2023-05-07T09:57:45;13.02;;;4.32;;
60704;SDS011;46545;38.014;-7.874;2023-05-07T09:59:46;10.52;;;4.32;;
60704;SDS011;46545;38.014;-7.874;2023-05-07T10:01:50;12.02;;;4.20;;
60704;SDS011;46545;38.014;-7.874;2023-05-07T10:03:51;13.38;;;4.70;;
60704;SDS011;46545;38.014;-7.874;2023-05-07T10:05:53;10.02;;;4.43;;
60704;SDS011;46545;38.014;-7.874;2023-05-07T10:07:55;13.43;;;4.22;;
60704;SDS011;46545;38.014;-7.874;2023-05-07T10:09:57;9.50;;;4.43;;
60704;SDS011;46545;38.014;-7.874;2023-05-07T10:12:05;8.25;;;4.00;;
60704;SDS011;46545;38.014;-7.874;2023-05-07T10:14:07;6.82;;;3.97;;
60704;SDS011;46545;38.014;-7.874;2023-05-07T10:16:08;11.32;;;4.15;;
60704;SDS011;46545;38.014;-7.874;2023-05-07T10:18:15;10.15;;;4.18;;
60704;SDS011;46545;38.014;-7.874;2023-05-07T10:20:21;13.02;;;4.47;;
60704;SDS011;46545;38.014;-7.874;2023-05-07T10:22:22;7.47;;;3.78;;
60704;SDS011;46545;38.014;-7.874;2023-05-07T10:24:26;10.77;;;4.07;;
60704;SDS011;46545;38.014;-7.874;2023-05-07T10:26:27;11.10;;;4.15;;
60704;SDS011;46545;38.014;-7.874;2023-05-07T10:28:30;9.88;;;3.17;;
60704;SDS011;46545;38.014;-7.874;2023-05-07T10:32:37;11.65;;;3.72;;
60704;SDS011;46545;38.014;-7.874;2023-05-07T10:34:41;7.82;;;2.92;;
60704;SDS011;46545;38.014;-7.874;2023-05-07T10:36:43;10.50;;;2.97;;
60704;SDS011;46545;38.014;-7.874;2023-05-07T10:38:44;7.18;;;2.63;;
60704;SDS011;46545;38.014;-7.874;2023-05-07T10:40:46;9.68;;;3.67;;
60704;SDS011;46545;38.014;-7.874;2023-05-07T10:42:53;8.50;;;2.72;;
60704;SDS011;46545;38.014;-7.874;2023-05-07T10:44:53;9.32;;;3.92;;
60704;SDS011;46545;38.014;-7.874;2023-05-07T10:47:08;8.02;;;3.00;;
60704;SDS011;46545;38.014;-7.874;2023-05-07T10:49:11;6.72;;;2.70;;
60704;SDS011;46545;38.014;-7.874;2023-05-07T10:51:20;11.00;;;2.75;;
60704;SDS011;46545;38.014;-7.874;2023-05-07T10:53:24;7.78;;;2.33;;
60704;SDS011;46545;38.014;-7.874;2023-05-07T10:56:31;8.63;;;3.03;;
60704;SDS011;46545;38.014;-7.874;2023-05-07T11:03:04;9.35;;;2.72;;
60704;SDS011;46545;38.014;-7.874;2023-05-07T11:09:15;5.88;;;2.38;;
60704;SDS011;46545;38.014;-7.874;2023-05-07T11:11:43;11.25;;;2.85;;
60704;SDS011;46545;38.014;-7.874;2023-05-07T11:13:48;7.50;;;2.75;;
60704;SDS011;46545;38.014;-7.874;2023-05-07T11:15:59;11.00;;;3.13;;
60704;SDS011;46545;38.014;-7.874;2023-05-07T11:18:08;6.13;;;2.60;;
60704;SDS011;46545;38.014;-7.874;2023-05-07T11:20:12;5.00;;;2.83;;
60704;SDS011;46545;38.014;-7.874;2023-05-07T11:24:51;11.52;;;3.60;;
60704;SDS011;46545;38.014;-7.874;2023-05-07T11:26:52;5.70;;;2.95;;
60704;SDS011;46545;38.014;-7.874;2023-05-07T11:28:55;9.10;;;3.25;;
60704;SDS011;46545;38.014;-7.874;2023-05-07T11:30:59;11.32;;;3.30;;
60704;SDS011;46545;38.014;-7.874;2023-05-07T11:32:59;6.47;;;3.25;;
60704;SDS011;46545;38.014;-7.874;2023-05-07T11:35:00;7.40;;;3.58;;
60704;SDS011;46545;38.014;-7.874;2023-05-07T11:37:01;8.18;;;4.07;;
60704;SDS011;46545;38.014;-7.874;2023-05-07T11:39:26;7.15;;;3.13;;
60704;SDS011;46545;38.014;-7.874;2023-05-07T11:41:33;7.05;;;2.63;;
60704;SDS011;46545;38.014;-7.874;2023-05-07T11:43:33;9.93;;;2.85;;
60704;SDS011;46545;38.014;-7.874;2023-05-07T11:45:35;8.35;;;2.70;;
60704;SDS011;46545;38.014;-7.874;2023-05-07T11:47:36;7.88;;;3.20;;
60704;SDS011;46545;38.014;-7.874;2023-05-07T11:49:37;7.28;;;3.50;;
60704;SDS011;46545;38.014;-7.874;2023-05-07T11:51:38;7.00;;;2.97;;
60704;SDS011;46545;38.014;-7.874;2023-05-07T11:53:40;10.18;;;3.28;;
60704;SDS011;46545;38.014;-7.874;2023-05-07T11:55:40;7.85;;;3.15;;
60704;SDS011;46545;38.014;-7.874;2023-05-07T11:57:41;8.38;;;2.67;;
60704;SDS011;46545;38.014;-7.874;2023-05-07T11:59:42;6.40;;;3.10;;
60704;SDS011;46545;38.014;-7.874;2023-05-07T12:01:47;8.05;;;3.17;;
60704;SDS011;46545;38.014;-7.874;2023-05-07T12:03:47;10.88;;;3.15;;